De Witt, Iowa
Current Conditions -  °F | °C
As of 8:15 AM on Saturday 20 Dec 2014 (Local Time) from KCWI Reporting Station
Overcast Overcast  
Wind Chill: 22°   Ceiling: 3000
Heat Index: 28°   Visibility: 4mi
Dew Point: 25°   Wind: 6mph
Humidity: 86%   Direction: 110°ESE
Pressure: 30.28"   Gusts: NA
Location:  41.82°N, 90.54°W
Report Text: KCWI 201415Z AUTO 11005KT 4SM OVC030 M02/M04 A3028 RMK AO1
Loading
Personal Weather Stations






























Interactive Weather Map New forecast layout! Learn more

10-Day Weather Forecast

Advertisements
Track Severe Weather on mobile